createdAt,value
2022-12-05T00:00:24.081Z,95.39
2022-12-05T00:02:55.424Z,95.02
2022-12-05T00:05:26.754Z,94.64
2022-12-05T00:07:58.138Z,94.87
2022-12-05T00:10:29.455Z,95.11
2022-12-05T00:13:00.790Z,95.22
2022-12-05T00:15:32.085Z,95.81
2022-12-05T00:18:03.807Z,95.10
2022-12-05T00:20:35.169Z,94.92
2022-12-05T00:23:06.461Z,95.59
2022-12-05T00:25:37.856Z,95.82
2022-12-05T00:28:09.122Z,95.09
2022-12-05T00:30:40.832Z,96.06
2022-12-05T00:33:12.224Z,94.89
2022-12-05T00:35:43.482Z,94.97
2022-12-05T00:38:14.853Z,95.12
2022-12-05T00:40:46.139Z,95.09
2022-12-05T00:43:17.421Z,96.00
2022-12-05T00:45:48.739Z,95.91
2022-12-05T00:48:20.069Z,95.17
2022-12-05T00:51:00.545Z,95.34
2022-12-05T00:53:32.732Z,95.71
2022-12-05T00:56:14.531Z,95.26
2022-12-05T00:58:46.764Z,95.65
2022-12-05T01:01:32.831Z,95.98
2022-12-05T01:04:11.313Z,94.75
2022-12-05T01:06:43.338Z,95.59
2022-12-05T01:09:18.823Z,96.45
2022-12-05T01:11:50.604Z,95.88
2022-12-05T01:14:23.928Z,96.09
2022-12-05T01:16:56.140Z,94.87
2022-12-05T01:19:30.097Z,95.47
2022-12-05T01:22:01.665Z,95.59
2022-12-05T01:24:32.946Z,95.69
2022-12-05T01:27:04.304Z,96.53
2022-12-05T01:29:35.644Z,96.19
2022-12-05T01:32:07.016Z,96.11
2022-12-05T01:34:38.430Z,96.14
2022-12-05T01:37:09.785Z,95.85
2022-12-05T01:39:41.165Z,96.79
2022-12-05T01:42:12.847Z,95.65
2022-12-05T01:44:47.136Z,96.57
2022-12-05T01:47:19.088Z,95.92
2022-12-05T01:49:50.455Z,95.80
2022-12-05T01:52:25.305Z,96.71
2022-12-05T01:55:08.534Z,95.87
2022-12-05T01:57:41.007Z,95.79
2022-12-05T02:00:16.311Z,96.15
2022-12-05T02:02:54.595Z,97.32
2022-12-05T02:05:37.519Z,96.09
2022-12-05T02:08:10.740Z,96.93
2022-12-05T02:11:00.243Z,96.38
2022-12-05T02:13:59.567Z,96.52
2022-12-05T02:16:58.657Z,96.11
2022-12-05T02:20:02.860Z,97.18
2022-12-05T02:22:42.225Z,96.80
2022-12-05T02:25:51.689Z,96.90
2022-12-05T02:28:52.984Z,96.17
2022-12-05T02:31:51.475Z,97.05
2022-12-05T02:34:40.404Z,96.92
2022-12-05T02:37:22.787Z,96.82
2022-12-05T02:40:10.594Z,96.66
2022-12-05T02:42:44.858Z,97.44
2022-12-05T02:45:18.753Z,96.57
2022-12-05T02:47:52.782Z,97.40
2022-12-05T02:50:29.121Z,96.86
2022-12-05T02:53:03.553Z,97.26
2022-12-05T02:55:35.477Z,97.42
2022-12-05T02:58:11.688Z,97.14
2022-12-05T03:00:47.361Z,97.56
2022-12-05T03:03:21.963Z,97.22
2022-12-05T03:06:05.163Z,97.65
2022-12-05T03:08:48.521Z,97.82
2022-12-05T03:11:20.260Z,97.18
2022-12-05T03:13:55.891Z,97.73
2022-12-05T03:16:38.726Z,97.38
2022-12-05T03:19:20.069Z,97.72
2022-12-05T03:22:10.644Z,97.75
2022-12-05T03:24:43.129Z,98.02
2022-12-05T03:27:46.418Z,97.79
2022-12-05T03:30:20.563Z,98.50
2022-12-05T03:33:17.759Z,97.75
2022-12-05T03:36:04.413Z,98.07
2022-12-05T03:38:56.652Z,97.72
2022-12-05T03:41:45.007Z,98.12
2022-12-05T03:44:43.088Z,98.50
2022-12-05T03:47:42.249Z,97.95
2022-12-05T03:50:24.240Z,97.43
2022-12-05T03:53:20.351Z,98.09
2022-12-05T03:56:02.221Z,98.39
2022-12-05T03:58:41.610Z,98.20
2022-12-05T04:01:16.672Z,98.01
2022-12-05T04:03:56.416Z,98.21
2022-12-05T04:06:33.175Z,97.90
2022-12-05T04:09:12.381Z,97.57
2022-12-05T04:11:53.195Z,98.24
2022-12-05T04:14:35.349Z,98.03
2022-12-05T04:17:16.919Z,98.14
2022-12-05T04:20:15.670Z,97.88
2022-12-05T04:22:47.295Z,98.60
2022-12-05T04:25:34.128Z,98.20
2022-12-05T04:28:19.641Z,97.60
2022-12-05T04:31:13.297Z,98.00
2022-12-05T04:33:54.622Z,98.64
2022-12-05T04:36:45.070Z,98.45
2022-12-05T04:39:22.807Z,98.83
2022-12-05T04:42:00.054Z,99.09
2022-12-05T04:44:37.933Z,98.46
2022-12-05T04:47:14.772Z,99.34
2022-12-05T04:49:52.166Z,98.79
2022-12-05T04:52:25.688Z,98.55
2022-12-05T04:55:09.496Z,98.34
2022-12-05T04:57:52.219Z,98.85
2022-12-05T05:00:24.205Z,98.96
2022-12-05T05:03:06.941Z,98.75
2022-12-05T05:05:39.660Z,98.42
2022-12-05T05:08:23.408Z,98.54
2022-12-05T05:11:04.569Z,98.72
2022-12-05T05:13:36.235Z,98.47
2022-12-05T05:16:08.760Z,99.18
2022-12-05T05:18:40.168Z,98.82
2022-12-05T05:21:21.400Z,98.62
2022-12-05T05:23:53.442Z,98.55
2022-12-05T05:26:26.317Z,99.06
2022-12-05T05:28:58.357Z,98.74
2022-12-05T05:31:30.305Z,98.75
2022-12-05T05:34:07.633Z,99.30
2022-12-05T05:36:40.832Z,98.61
2022-12-05T05:39:14.872Z,98.20
2022-12-05T05:41:46.154Z,98.48
2022-12-05T05:44:17.404Z,98.78
2022-12-05T05:46:48.815Z,99.11
2022-12-05T05:49:20.126Z,99.30
2022-12-05T05:51:51.385Z,98.85
2022-12-05T05:54:22.679Z,99.23
2022-12-05T05:56:53.992Z,98.57
2022-12-05T05:59:25.332Z,99.03
2022-12-05T06:01:56.665Z,98.51
2022-12-05T06:04:27.968Z,99.17
2022-12-05T06:06:59.301Z,98.60
2022-12-05T06:09:30.713Z,98.46
2022-12-05T06:12:02.006Z,99.22
2022-12-05T06:14:33.403Z,98.58
2022-12-05T06:17:05.135Z,99.30
2022-12-05T06:19:36.396Z,99.24
2022-12-05T06:22:08.136Z,99.19
2022-12-05T06:24:39.443Z,99.09
2022-12-05T06:27:10.766Z,98.77
2022-12-05T06:29:42.227Z,99.09
2022-12-05T06:32:13.564Z,98.91
2022-12-05T06:34:44.805Z,98.93
2022-12-05T06:37:16.086Z,98.40
2022-12-05T06:39:47.377Z,99.23
2022-12-05T06:42:18.748Z,98.37
2022-12-05T06:44:50.033Z,99.24
2022-12-05T06:47:21.296Z,98.99
2022-12-05T06:49:52.553Z,98.96
2022-12-05T06:52:23.839Z,99.40
2022-12-05T06:54:55.118Z,99.37
2022-12-05T06:57:28.498Z,99.72
2022-12-05T07:00:18.450Z,98.93
2022-12-05T07:02:53.167Z,98.94
2022-12-05T07:05:24.711Z,99.08
2022-12-05T07:07:56.130Z,98.73
2022-12-05T07:10:27.460Z,99.36
2022-12-05T07:12:58.753Z,99.86
2022-12-05T07:15:30.012Z,99.86
2022-12-05T07:18:01.352Z,99.89
2022-12-05T07:20:56.081Z,98.73
2022-12-05T07:23:23.904Z,99.67
2022-12-05T07:25:55.422Z,98.86
2022-12-05T07:28:26.780Z,99.76
2022-12-05T07:31:02.347Z,99.13
2022-12-05T07:33:33.716Z,99.29
2022-12-05T07:36:07.485Z,99.85
2022-12-05T07:38:39.313Z,98.85
2022-12-05T07:41:17.642Z,99.58
2022-12-05T07:43:50.878Z,99.27
2022-12-05T07:46:23.033Z,99.53
2022-12-05T07:48:54.744Z,99.16
2022-12-05T07:51:28.096Z,99.18
2022-12-05T07:53:59.889Z,99.29
2022-12-05T07:56:31.260Z,98.99
2022-12-05T07:59:02.864Z,98.60
2022-12-05T08:01:34.329Z,98.52
2022-12-05T08:04:07.660Z,99.21
2022-12-05T08:06:40.800Z,99.00
2022-12-05T08:09:12.078Z,99.36
2022-12-05T08:11:46.947Z,100.00
2022-12-05T08:14:21.542Z,99.95
2022-12-05T08:16:52.959Z,99.30
2022-12-05T08:19:24.299Z,99.57
2022-12-05T08:21:55.632Z,99.71
2022-12-05T08:24:26.960Z,99.23
2022-12-05T08:26:58.232Z,98.71
2022-12-05T08:29:29.514Z,99.61
2022-12-05T08:32:00.778Z,98.91
2022-12-05T08:34:32.070Z,99.54
2022-12-05T08:37:03.524Z,99.79
2022-12-05T08:39:38.693Z,99.15
2022-12-05T08:42:10.351Z,99.65
2022-12-05T08:44:41.607Z,99.12
2022-12-05T08:47:12.856Z,99.19
2022-12-05T08:49:44.165Z,99.18
2022-12-05T08:52:15.501Z,99.43
2022-12-05T08:54:46.756Z,99.44
2022-12-05T08:57:18.064Z,98.89
2022-12-05T08:59:49.316Z,98.45
2022-12-05T09:02:20.645Z,99.26
2022-12-05T09:04:54.083Z,99.55
2022-12-05T09:07:25.637Z,98.84
2022-12-05T09:09:56.892Z,99.47
2022-12-05T09:12:28.147Z,100.00
2022-12-05T09:14:59.687Z,99.16
2022-12-05T09:17:31.120Z,99.46
2022-12-05T09:20:02.429Z,100.00
2022-12-05T09:22:33.735Z,100.00
2022-12-05T09:25:05.942Z,100.00
2022-12-05T09:27:37.240Z,100.00
2022-12-05T09:30:09.330Z,100.00
2022-12-05T09:32:40.607Z,99.93
2022-12-05T09:35:12.224Z,100.00
2022-12-05T09:37:43.474Z,100.00
2022-12-05T09:40:17.163Z,100.00
2022-12-05T09:43:01.225Z,100.00
2022-12-05T09:45:39.739Z,100.00
2022-12-05T09:48:14.663Z,100.00
2022-12-05T09:50:56.180Z,100.00
2022-12-05T09:53:32.320Z,100.00
2022-12-05T09:56:05.286Z,100.00
2022-12-05T09:58:45.489Z,100.00
2022-12-05T10:01:25.613Z,100.00
2022-12-05T10:04:20.832Z,100.00
2022-12-05T10:07:15.560Z,100.00
2022-12-05T10:09:55.296Z,100.00
2022-12-05T10:12:47.719Z,100.00
2022-12-05T10:15:45.708Z,100.00
2022-12-05T10:18:38.730Z,100.00
2022-12-05T10:21:25.729Z,100.00
2022-12-05T10:24:00.608Z,100.00
2022-12-05T10:26:43.750Z,100.00
2022-12-05T10:29:20.721Z,100.00
2022-12-05T10:32:00.932Z,100.00
2022-12-05T10:34:39.447Z,100.00
2022-12-05T10:37:17.558Z,100.00
2022-12-05T10:39:50.416Z,100.00
2022-12-05T10:42:28.329Z,100.00
2022-12-05T10:45:04.722Z,100.00
2022-12-05T10:47:36.669Z,100.00
2022-12-05T10:50:21.625Z,100.00
2022-12-05T10:52:55.542Z,100.00
2022-12-05T10:55:36.129Z,100.00
2022-12-05T10:58:17.844Z,100.00
2022-12-05T11:00:53.144Z,100.00
2022-12-05T11:03:29.243Z,100.00
2022-12-05T11:06:03.018Z,100.00
2022-12-05T11:09:03.011Z,100.00
2022-12-05T11:11:33.174Z,100.00
2022-12-05T11:14:07.818Z,100.00
2022-12-05T11:16:39.485Z,100.00
2022-12-05T11:19:31.243Z,100.00
2022-12-05T11:22:04.831Z,100.00
2022-12-05T11:24:38.298Z,100.00
2022-12-05T11:27:15.724Z,100.00
2022-12-05T11:30:18.783Z,100.00
2022-12-05T11:32:51.384Z,100.00
2022-12-05T11:35:26.223Z,100.00
2022-12-05T11:38:01.875Z,100.00
2022-12-05T11:40:48.208Z,100.00
2022-12-05T11:43:54.710Z,100.00
2022-12-05T11:46:32.071Z,100.00
2022-12-05T11:49:09.295Z,100.00
2022-12-05T11:51:56.747Z,100.00
2022-12-05T11:55:03.767Z,100.00
2022-12-05T11:57:48.894Z,100.00
2022-12-05T12:00:41.418Z,100.00
2022-12-05T12:03:49.664Z,100.00
2022-12-05T12:07:02.755Z,100.00
2022-12-05T12:09:53.823Z,100.00
2022-12-05T12:12:33.702Z,100.00
2022-12-05T12:15:32.381Z,100.00
2022-12-05T12:18:17.991Z,100.00
2022-12-05T12:21:17.183Z,100.00
2022-12-05T12:24:11.358Z,100.00
2022-12-05T12:27:00.185Z,100.00
2022-12-05T12:30:03.816Z,100.00
2022-12-05T12:33:02.967Z,100.00
2022-12-05T12:35:40.607Z,100.00
2022-12-05T12:38:37.080Z,100.00
2022-12-05T12:41:26.397Z,100.00
2022-12-05T12:44:22.733Z,100.00
2022-12-05T12:46:58.565Z,100.00
2022-12-05T12:49:42.020Z,100.00
2022-12-05T12:52:26.641Z,100.00
2022-12-05T12:55:30.251Z,100.00
2022-12-05T12:58:40.286Z,100.00
2022-12-05T13:01:24.327Z,100.00
2022-12-05T13:04:28.295Z,100.00
2022-12-05T13:07:15.914Z,100.00
2022-12-05T13:09:55.626Z,100.00
2022-12-05T13:12:31.315Z,100.00
2022-12-05T13:15:11.512Z,100.00
2022-12-05T13:17:47.313Z,100.00
2022-12-05T13:20:22.974Z,100.00
2022-12-05T13:22:54.975Z,100.00
2022-12-05T13:25:30.803Z,100.00
2022-12-05T13:28:05.262Z,100.00
2022-12-05T13:30:56.530Z,100.00
2022-12-05T13:33:42.008Z,100.00
2022-12-05T13:36:40.340Z,100.00
2022-12-05T13:39:33.583Z,100.00
2022-12-05T13:42:17.883Z,100.00
2022-12-05T13:44:57.356Z,100.00
2022-12-05T13:47:35.406Z,100.00
2022-12-05T13:50:07.146Z,100.00
2022-12-05T13:52:42.889Z,100.00
2022-12-05T13:55:23.224Z,100.00
2022-12-05T13:57:56.505Z,100.00
2022-12-05T14:00:31.113Z,100.00
2022-12-05T14:03:15.847Z,100.00
2022-12-05T14:05:49.653Z,100.00
2022-12-05T14:08:35.596Z,100.00
2022-12-05T14:11:10.901Z,100.00
2022-12-05T14:13:44.027Z,100.00
2022-12-05T14:16:24.195Z,100.00
2022-12-05T14:19:12.241Z,100.00
2022-12-05T14:21:53.046Z,100.00
2022-12-05T14:24:55.541Z,100.00
2022-12-05T14:27:53.679Z,100.00
2022-12-05T14:31:02.667Z,100.00
2022-12-05T14:33:34.095Z,100.00
2022-12-05T14:36:08.286Z,100.00
2022-12-05T14:38:40.090Z,100.00
2022-12-05T14:41:22.439Z,100.00
2022-12-05T14:43:56.489Z,100.00
2022-12-05T14:46:33.396Z,100.00
2022-12-05T14:49:47.051Z,100.00
2022-12-05T14:52:26.463Z,100.00
2022-12-05T14:55:06.011Z,100.00
2022-12-05T14:57:46.901Z,100.00
2022-12-05T15:00:22.605Z,100.00
2022-12-05T15:02:56.491Z,100.00
2022-12-05T15:05:31.784Z,100.00
2022-12-05T15:08:04.758Z,100.00
2022-12-05T15:10:38.558Z,100.00
2022-12-05T15:13:24.483Z,100.00
2022-12-05T15:16:12.739Z,100.00
2022-12-05T15:18:50.309Z,100.00
2022-12-05T15:21:33.431Z,100.00
2022-12-05T15:24:11.718Z,100.00
2022-12-05T15:26:50.549Z,100.00
2022-12-05T15:29:25.333Z,100.00
2022-12-05T15:32:11.947Z,100.00
2022-12-05T15:35:06.079Z,100.00
2022-12-05T15:37:55.135Z,100.00
2022-12-05T15:40:36.913Z,100.00
2022-12-05T15:43:30.834Z,100.00
2022-12-05T15:46:09.410Z,100.00
2022-12-05T15:48:40.779Z,100.00
2022-12-05T15:51:12.242Z,100.00
2022-12-05T15:53:56.155Z,100.00
2022-12-05T15:56:36.009Z,100.00
2022-12-05T15:59:26.090Z,100.00
2022-12-05T16:02:26.278Z,100.00
2022-12-05T16:04:59.995Z,100.00
2022-12-05T16:07:31.648Z,100.00
2022-12-05T16:10:03.183Z,100.00
2022-12-05T16:12:39.691Z,100.00
2022-12-05T16:15:27.914Z,100.00
2022-12-05T16:18:02.126Z,100.00
2022-12-05T16:20:36.268Z,100.00
2022-12-05T16:23:29.832Z,99.94
2022-12-05T16:26:20.079Z,100.00
2022-12-05T16:29:01.617Z,99.60
2022-12-05T16:31:34.069Z,99.78
2022-12-05T16:34:08.399Z,100.00
2022-12-05T16:36:46.806Z,100.00
2022-12-05T16:39:19.997Z,100.00
2022-12-05T16:41:51.542Z,100.00
2022-12-05T16:44:28.930Z,100.00
2022-12-05T16:47:00.254Z,99.77
2022-12-05T16:49:34.451Z,100.00
2022-12-05T16:52:08.832Z,99.74
2022-12-05T16:54:42.532Z,99.73
2022-12-05T16:57:16.198Z,99.63
2022-12-05T16:59:49.344Z,100.00
2022-12-05T17:02:20.844Z,99.87
2022-12-05T17:04:52.557Z,99.46
2022-12-05T17:07:23.869Z,99.71
2022-12-05T17:09:55.462Z,100.00
2022-12-05T17:12:28.170Z,99.93
2022-12-05T17:14:59.731Z,99.80
2022-12-05T17:17:31.133Z,100.00
2022-12-05T17:20:02.440Z,99.81
2022-12-05T17:22:33.784Z,99.93
2022-12-05T17:25:24.623Z,99.96
2022-12-05T17:27:55.891Z,100.00
2022-12-05T17:30:27.243Z,100.00
2022-12-05T17:32:58.497Z,100.00
2022-12-05T17:35:30.426Z,99.91
2022-12-05T17:38:03.525Z,99.68
2022-12-05T17:40:34.954Z,100.00
2022-12-05T17:43:06.265Z,99.77
2022-12-05T17:45:37.661Z,100.00
2022-12-05T17:48:13.864Z,99.87
2022-12-05T17:50:47.348Z,100.00
2022-12-05T17:53:21.017Z,100.00
2022-12-05T17:55:52.920Z,99.98
2022-12-05T17:58:24.224Z,100.00
2022-12-05T18:00:55.764Z,100.00
2022-12-05T18:03:27.359Z,99.97
2022-12-05T18:05:58.920Z,100.00
2022-12-05T18:08:30.335Z,100.00
2022-12-05T18:11:01.717Z,100.00
2022-12-05T18:13:33.713Z,100.00
2022-12-05T18:16:05.433Z,99.95
2022-12-05T18:18:36.789Z,100.00
2022-12-05T18:21:12.572Z,100.00
2022-12-05T18:23:44.043Z,100.00
2022-12-05T18:26:15.420Z,100.00
2022-12-05T18:28:47.436Z,99.35
2022-12-05T18:31:19.334Z,100.00
2022-12-05T18:33:50.841Z,99.44
2022-12-05T18:36:22.222Z,100.00
2022-12-05T18:38:55.387Z,100.00
2022-12-05T18:41:27.209Z,99.73
2022-12-05T18:43:58.552Z,99.94
2022-12-05T18:46:29.933Z,100.00
2022-12-05T18:49:03.499Z,100.00
2022-12-05T18:51:35.140Z,99.63
2022-12-05T18:54:06.886Z,99.89
2022-12-05T18:56:39.980Z,99.99
2022-12-05T18:59:16.919Z,99.77
2022-12-05T19:01:49.739Z,99.56
2022-12-05T19:04:21.538Z,99.58
2022-12-05T19:06:58.917Z,100.00
2022-12-05T19:09:32.204Z,100.00
2022-12-05T19:12:03.779Z,100.00
2022-12-05T19:14:35.183Z,100.00
2022-12-05T19:17:06.615Z,100.00
2022-12-05T19:19:38.093Z,99.94
2022-12-05T19:22:09.449Z,99.81
2022-12-05T19:24:40.779Z,99.95
2022-12-05T19:27:12.195Z,100.00
2022-12-05T19:29:43.512Z,99.52
2022-12-05T19:32:15.023Z,99.71
2022-12-05T19:34:48.288Z,99.57
2022-12-05T19:37:19.633Z,98.95
2022-12-05T19:39:51.647Z,99.16
2022-12-05T19:42:23.071Z,99.34
2022-12-05T19:44:54.342Z,99.28
2022-12-05T19:47:25.608Z,99.29
2022-12-05T19:49:57.339Z,98.71
2022-12-05T19:52:28.853Z,99.37
2022-12-05T19:55:00.136Z,99.18
2022-12-05T19:57:31.671Z,99.66
2022-12-05T20:00:03.974Z,99.82
2022-12-05T20:02:39.994Z,99.15
2022-12-05T20:05:11.672Z,99.43
2022-12-05T20:07:43.008Z,99.83
2022-12-05T20:10:14.420Z,99.44
2022-12-05T20:12:45.874Z,99.62
2022-12-05T20:15:17.415Z,99.33
2022-12-05T20:17:52.998Z,99.57
2022-12-05T20:20:24.695Z,99.09
2022-12-05T20:22:56.084Z,99.13
2022-12-05T20:25:27.366Z,99.12
2022-12-05T20:27:58.776Z,99.52
2022-12-05T20:30:30.682Z,99.44
2022-12-05T20:33:02.084Z,99.61
2022-12-05T20:35:37.145Z,99.24
2022-12-05T20:38:08.437Z,99.21
2022-12-05T20:40:39.815Z,99.76
2022-12-05T20:43:11.230Z,99.35
2022-12-05T20:45:42.514Z,99.62
2022-12-05T20:48:13.826Z,99.51
2022-12-05T20:50:45.125Z,100.00
2022-12-05T20:53:16.445Z,99.64
2022-12-05T20:55:47.831Z,99.95
2022-12-05T20:58:19.146Z,99.46
2022-12-05T21:00:57.691Z,100.00
2022-12-05T21:03:29.186Z,100.00
2022-12-05T21:06:00.472Z,99.36
2022-12-05T21:08:31.808Z,99.65
2022-12-05T21:11:03.370Z,100.00
2022-12-05T21:13:35.508Z,100.00
2022-12-05T21:16:16.501Z,99.87
2022-12-05T21:18:48.501Z,99.82
2022-12-05T21:21:22.293Z,99.63
2022-12-05T21:23:59.490Z,99.88
2022-12-05T21:26:33.539Z,99.71
2022-12-05T21:29:06.819Z,100.00
2022-12-05T21:31:40.761Z,99.68
2022-12-05T21:34:17.393Z,99.66
2022-12-05T21:36:49.177Z,99.80
2022-12-05T21:39:20.770Z,99.62
2022-12-05T21:41:52.153Z,99.86
2022-12-05T21:44:23.521Z,100.00
2022-12-05T21:46:54.832Z,100.00
2022-12-05T21:49:26.251Z,99.64
2022-12-05T21:51:57.499Z,100.00
2022-12-05T21:54:30.315Z,99.88
2022-12-05T21:57:01.568Z,99.91
2022-12-05T21:59:32.924Z,100.00
2022-12-05T22:02:04.297Z,100.00
2022-12-05T22:04:35.589Z,99.78
2022-12-05T22:07:06.878Z,99.82
2022-12-05T22:09:38.178Z,99.70
2022-12-05T22:12:09.485Z,99.58
2022-12-05T22:14:40.749Z,100.00
2022-12-05T22:17:12.027Z,99.91
2022-12-05T22:19:43.392Z,99.76
2022-12-05T22:22:14.727Z,100.00
2022-12-05T22:24:46.040Z,99.67
2022-12-05T22:27:17.310Z,99.74
2022-12-05T22:29:52.697Z,99.85
2022-12-05T22:32:24.254Z,99.88
2022-12-05T22:34:59.286Z,100.00
2022-12-05T22:37:34.671Z,99.95
2022-12-05T22:40:06.698Z,100.00
2022-12-05T22:42:37.978Z,100.00
2022-12-05T22:45:12.371Z,99.42
2022-12-05T22:47:43.842Z,99.48
2022-12-05T22:50:15.223Z,100.00
2022-12-05T22:52:46.548Z,100.00
2022-12-05T22:55:17.922Z,100.00
2022-12-05T22:57:49.177Z,99.69
2022-12-05T23:00:20.665Z,100.00
2022-12-05T23:02:52.553Z,100.00
2022-12-05T23:05:23.875Z,100.00
2022-12-05T23:07:55.261Z,99.83
2022-12-05T23:10:26.785Z,100.00
2022-12-05T23:12:58.167Z,100.00
2022-12-05T23:15:29.575Z,100.00
2022-12-05T23:18:00.839Z,99.60
2022-12-05T23:20:32.859Z,99.87
2022-12-05T23:23:04.183Z,100.00
2022-12-05T23:25:35.521Z,100.00
2022-12-05T23:28:06.790Z,99.79
2022-12-05T23:30:38.063Z,100.00
2022-12-05T23:33:09.520Z,100.00
2022-12-05T23:35:40.785Z,100.00
2022-12-05T23:38:12.076Z,100.00
2022-12-05T23:40:43.339Z,100.00
2022-12-05T23:43:14.635Z,99.89
2022-12-05T23:45:45.907Z,100.00
2022-12-05T23:48:17.264Z,100.00
2022-12-05T23:51:07.181Z,100.00
2022-12-05T23:53:40.915Z,99.99
2022-12-05T23:56:15.762Z,99.87
2022-12-05T23:58:47.295Z,100.00
